• Join FlightAware (Why Join?)
  • Login
  • US Flag 
03:27AM EST


 

Airport Tracker/Info


-or-


 

Live Flight TrackerFlight Track Log ✈ N741FX ✈ 28-Aug-2013 ✈ KMAF - KAFW

Flight Track Log - Related Links

Times and Time Zones

All times are in EDT time to prevent confusion due to time zone crossing. See the N741FX flight status page for this flight to view local times or setup timezone preferences in your user account.

Time Position Orientation Groundspeed Altitude Reporting Facility
EDT Latitude Longitude Course Direction KTS MPH feet Rate Location/Type
07:42AM 32.0167 -101.9976 90° East  Level FlightAware Approximate
07:43AM 32.0199 -101.9423 81° East  Level FlightAware Approximate
07:44AM 32.0273 -101.8873 81° East  Level FlightAware Approximate
07:45AM 32.0346 -101.8324 81° East  Level FlightAware Approximate
07:46AM 32.0411 -101.7836 81° East  Level FlightAware Approximate
07:46AM 31.9686 -101.7061 90° East 177 204 7,000  Level Fort Worth Center
07:47AM 32.0476 -101.7349 81° East  Level FlightAware Approximate
07:47AM 31.9747 -101.6500 83° East 177 204 7,100  Level Fort Worth Center
07:48AM 32.0531 -101.6860 83° East  Level FlightAware Approximate
07:48AM 31.9828 -101.5964 80° East 172 198 7,100  Level Fort Worth Center
07:49AM 32.0580 -101.6370 83° East  Level FlightAware Approximate
07:49AM 31.9908 -101.5431 80° East 172 198 7,100  Level Fort Worth Center
07:50AM 32.0629 -101.5880 83° East  Level FlightAware Approximate
07:50AM 31.9989 -101.4869 80° East 167 192 7,000  Level Fort Worth Center
07:51AM 32.0667 -101.5389 90° East  Level FlightAware Approximate
07:51AM 32.0069 -101.4311 80° East 167 192 7,000  Level Fort Worth Center
07:52AM 32.0667 -101.4895 90° East  Level FlightAware Approximate
07:52AM 32.0150 -101.3775 80° East 167 192 7,100  Level Fort Worth Center
07:53AM 32.0231 -101.3214 80° East 167 192 7,100  Level Fort Worth Center
07:54AM 32.0289 -101.2678 83° East 167 192 7,100  Level Fort Worth Center
07:55AM 32.0347 -101.2117 83° East 162 186 7,100  Level Fort Worth Center
07:56AM 32.0425 -101.1581 80° East 162 186 7,100  Level Fort Worth Center
07:57AM 32.0525 -101.1069 77° East 162 186 7,100  Level Fort Worth Center
07:58AM 32.0583 -101.0533 83° East 162 186 7,100  Level Fort Worth Center
07:59AM 32.0639 -100.9972 83° East 162 186 7,100  Level Fort Worth Center
08:00AM 32.0717 -100.9461 80° East 162 186 7,100  Level Fort Worth Center
08:01AM 32.0794 -100.8972 79° East 155 178 7,100  Level Fort Worth Center
08:02AM 32.0872 -100.8364 81° East 162 186 7,100  Level Fort Worth Center
08:03AM 32.0928 -100.7875 82° East 162 186 7,100  Level Fort Worth Center
08:04AM 32.1028 -100.7267 79° East 157 181 7,100  Level Fort Worth Center
08:05AM 32.1083 -100.6778 82° East 164 189 7,100  Level Fort Worth Center
08:12AM 32.1550 -100.3320 82° East 166 191  Descending FlightAware
08:12AM 32.1580 -100.3130 79° East 165 190 360 Level FlightAware
08:12AM 32.1590 -100.3010 84° East 164 189 420 Level FlightAware
08:13AM 32.1620 -100.2810 80° East 165 190 420 Level FlightAware
08:13AM 32.1640 -100.2640 82° East 164 189 420 Level FlightAware
08:14AM 32.1690 -100.2310 80° East 164 189 420 Level FlightAware
08:14AM 32.1700 -100.2160 85° East 165 190 420 Level FlightAware
08:14AM 32.1730 -100.1980 79° East 166 191 420 Level FlightAware
08:15AM 32.1770 -100.1670 81° East 165 190 480 Level FlightAware
08:16AM 32.1880 -100.0800 81° East 167 192 480 Level FlightAware
08:17AM 32.1910 -100.0590 80° East 167 192 540 Level FlightAware
08:17AM 32.1950 -100.0340 79° East 167 192 540 Level FlightAware
08:18AM 32.1990 -100.0010 82° East 166 191 600 Level FlightAware
08:18AM 32.2010 -99.9860 81° East 166 191 600 Level FlightAware
08:19AM 32.2040 -99.9590 83° East 166 191 660 Level FlightAware
08:19AM 32.2070 -99.9410 79° East 163 188 660 Level FlightAware
08:20AM 32.2100 -99.9110 83° East 164 189 720 Level FlightAware
08:20AM 32.2120 -99.8950 82° East 164 189 720 Level FlightAware
08:20AM 32.2130 -99.8830 84° East 164 189 780 Level FlightAware
08:20AM 32.2160 -99.8650 79° East 165 190 780 Level FlightAware
08:21AM 32.2200 -99.8370 80° East 165 190 840 Level FlightAware
08:21AM 32.2210 -99.8200 86° East 164 189 900 Level FlightAware
08:22AM 32.2240 -99.8000 80° East 164 189 900 Level FlightAware
08:22AM 32.2270 -99.7750 82° East 163 188 960 Level FlightAware
08:22AM 32.2280 -99.7650 83° East 163 188 1,020 Level FlightAware
08:23AM 32.2310 -99.7460 79° East 165 190 1,080 Level FlightAware
08:23AM 32.2340 -99.7260 80° East 164 189 1,140 Level FlightAware
08:23AM 32.2350 -99.7110 85° East 164 189 1,200 Level FlightAware
08:24AM 32.2400 -99.6810 79° East 164 189 1,260 Level FlightAware
08:24AM 32.2420 -99.6570 84° East 163 188 1,440 Level FlightAware
08:25AM 32.2460 -99.6280 81° East 162 186 1,560 Level FlightAware
08:25AM 32.2490 -99.6020 82° East 163 188 1,800 Level FlightAware
08:26AM 32.2520 -99.5820 80° East 164 189 2,040 Level FlightAware
08:26AM 32.2550 -99.5540 83° East 164 189 2,220 Level FlightAware
08:26AM 32.2560 -99.5450 83° East 164 189 2,760 Level FlightAware
08:27AM 32.2590 -99.5240 80° East 164 189 2,940 Level FlightAware
08:29AM 32.2703 -99.4231 81° East 166 191 7,100 2,400 Climbing Fort Worth Center
08:30AM 32.2775 -99.3924 81° East  Level FlightAware Approximate
08:30AM 32.2775 -99.3694 81° East 179 206 7,100  Level Fort Worth Center
08:31AM 32.2846 -99.3414 81° East  Level FlightAware Approximate
08:31AM 32.2844 -99.3131 82° East 179 206 7,100  Level Fort Worth Center
08:32AM 32.2918 -99.2905 81° East  Level FlightAware Approximate
08:32AM 32.2875 -99.2614 86° East 179 206 7,100  Level Fort Worth Center
08:33AM 32.2988 -99.2395 81° East  Level FlightAware Approximate
08:33AM 32.2964 -99.2075 79° East 174 200 7,100  Level Fort Worth Center
08:34AM 32.3036 -99.1536 81° East 169 194 7,100  Level Fort Worth Center
08:35AM 32.3083 -99.0972 84° East 169 194 7,100  Level Fort Worth Center
08:36AM 32.3175 -99.0433 79° East 164 189 7,100  Level Fort Worth Center
08:37AM 32.3225 -98.9892 84° East 159 183 7,100  Level Fort Worth Center
08:38AM 32.3314 -98.9353 79° East 159 183 7,100  Level Fort Worth Center
08:39AM 32.3361 -98.8814 84° East 159 183 7,100  Level Fort Worth Center
08:40AM 32.3431 -98.8272 81° East 159 183 7,100  Level Fort Worth Center
08:41AM 32.3478 -98.7733 84° East 159 183 7,100  Level Fort Worth Center
08:42AM 32.3569 -98.7119 80° East 159 183 7,100  Level Fort Worth Center
08:43AM 32.3658 -98.6581 79° East 159 183 7,100  Level Fort Worth Center
08:44AM 32.3725 -98.6014 82° East 159 183 7,100  Level Fort Worth Center
08:45AM 32.3772 -98.5475 84° East 159 183 7,100 -180 Level Fort Worth Center
08:51AM 32.4140 -98.2160 84° East 179 206 -240 Descending FlightAware
08:51AM 32.4160 -98.1980 82° East 179 206 60 Level FlightAware
08:51AM 32.4190 -98.1690 83° East 179 206 60 Level FlightAware
08:52AM 32.4210 -98.1470 84° East 179 206 60 Level FlightAware
08:52AM 32.4250 -98.1210 80° East 178 205 60 Level FlightAware
08:53AM 32.4260 -98.1070 85° East 177 204 60 Level FlightAware
08:53AM 32.4290 -98.0830 82° East 176 203 60 Level FlightAware
08:53AM 32.4320 -98.0600 81° East 174 200 120 Level FlightAware
08:54AM 32.4340 -98.0400 83° East 174 200 120 Level FlightAware
08:54AM 32.4360 -98.0230 82° East 175 201 120 Level FlightAware
08:54AM 32.4380 -98.0040 83° East 174 200 120 Level FlightAware
08:55AM 32.4400 -97.9860 82° East 170 196 120 Level FlightAware
08:55AM 32.4420 -97.9680 82° East 168 193 120 Level FlightAware
08:55AM 32.4440 -97.9490 83° East 167 192 120 Level FlightAware
08:56AM 32.4460 -97.9280 84° East 167 192 120 Level FlightAware
08:56AM 32.4480 -97.9130 81° East 167 192 120 Level FlightAware
08:56AM 32.4500 -97.8920 84° East 167 192 120 Level FlightAware
08:57AM 32.4530 -97.8730 79° East 167 192 120 Level FlightAware
08:57AM 32.4550 -97.8510 84° East 166 191 120 Level FlightAware
08:57AM 32.4570 -97.8330 82° East 166 191 120 Level FlightAware
08:58AM 32.4620 -97.8220 62° Northeast 168 193 120 Level FlightAware
08:58AM 32.4660 -97.8160 52° Northeast 171 197 120 Level FlightAware
08:58AM 32.4770 -97.8080 32° Northeast 174 200 120 Level FlightAware
08:58AM 32.4910 -97.7960 36° Northeast 170 196 120 Level FlightAware
08:59AM 32.5060 -97.7810 40° Northeast 172 198 120 Level FlightAware
08:59AM 32.5190 -97.7680 40° Northeast 181 208 180 Level FlightAware
09:00AM 32.5350 -97.7520 40° Northeast 186 214 180 Level FlightAware
09:00AM 32.5510 -97.7360 40° Northeast 186 214 180 Level FlightAware
09:00AM 32.5650 -97.7230 38° Northeast 187 215 180 Level FlightAware
09:01AM 32.5800 -97.7110 34° Northeast 185 213 180 Level FlightAware
09:01AM 32.5950 -97.6960 40° Northeast 173 199 180 Level FlightAware
09:01AM 32.6020 -97.6890 40° Northeast 172 198 180 Level FlightAware
09:02AM 32.6160 -97.6770 36° Northeast 172 198 180 Level FlightAware
09:02AM 32.6280 -97.6650 40° Northeast 171 197 180 Level FlightAware
09:02AM 32.6440 -97.6510 36° Northeast 172 198 240 Level FlightAware
09:03AM 32.6560 -97.6400 38° Northeast 171 197 240 Level FlightAware
09:03AM 32.6630 -97.6330 40° Northeast 171 197 240 Level FlightAware
09:03AM 32.6780 -97.6180 40° Northeast 172 198 240 Level FlightAware
09:04AM 32.6920 -97.6050 38° Northeast 171 197 240 Level FlightAware
09:04AM 32.7040 -97.5930 40° Northeast 171 197 240 Level FlightAware
09:04AM 32.7120 -97.5860 36° Northeast 172 198 300 Level FlightAware
09:05AM 32.7260 -97.5730 38° Northeast 172 198 300 Level FlightAware
09:05AM 32.7380 -97.5600 42° Northeast 171 197 300 Level FlightAware
09:05AM 32.7510 -97.5490 35° Northeast 172 198 300 Level FlightAware
09:06AM 32.7640 -97.5370 38° Northeast 171 197 360 Level FlightAware
09:06AM 32.7760 -97.5240 42° Northeast 173 199 360 Level FlightAware
09:06AM 32.7910 -97.5100 38° Northeast 183 211 420 Level FlightAware
09:07AM 32.8050 -97.4970 38° Northeast 187 215 420 Level FlightAware
09:07AM 32.8180 -97.4830 42° Northeast 189 217 480 Level FlightAware
09:07AM 32.8330 -97.4700 36° Northeast 187 215 540 Level FlightAware
09:08AM 32.8390 -97.4680 16° North 184 212 540 Level FlightAware
09:08AM 32.8560 -97.4630 14° North 177 204 600 Level FlightAware
09:08AM 32.8720 -97.4600 North 174 200 660 Level FlightAware
09:08AM 32.8850 -97.4590 North 173 199 720 Level FlightAware
09:09AM 32.8960 -97.4570 North 172 198 840 Level FlightAware
09:09AM 32.9120 -97.4540 North 172 198 900 Level FlightAware
09:09AM 32.9280 -97.4500 12° North 173 199 1,020 Level FlightAware
09:10AM 32.9440 -97.4470 North 174 200 1,260 Level FlightAware
09:10AM 32.9590 -97.4410 19° North 173 199 1,560 Level FlightAware
09:10AM 32.9760 -97.4320 24° Northeast 174 200 2,100 Level FlightAware
09:10AM 32.9780 -97.4300 40° Northeast 176 203 3,180 Level FlightAware
09:11AM 33.0050 -97.4130 28° Northeast 171 197 2,200 2,640 Climbing FlightAware
09:11AM 33.0130 -97.4060 36° Northeast 169 194 2,200  Level FlightAware
09:11AM 33.0180 -97.3990 50° Northeast 171 197 2,200  Level FlightAware
09:12AM 33.0210 -97.3910 66° East 169 194 2,200 -240 Level FlightAware
09:12AM 33.0270 -97.3720 69° East 178 205 2,100 -420 Descending FlightAware
09:12AM 33.0290 -97.3650 71° East 179 206 2,000 -600 Descending FlightAware
09:12AM 33.0310 -97.3420 84° East 181 208 1,800 -240 Descending FlightAware
09:13AM 33.0330 -97.3180 84° East 181 208 1,800  Level FlightAware
09:20AM 32.9833 -97.3167 112° Southeast  Level FlightAware Approximate
09:21AM 32.9876 -97.3188 112° Southeast  Level Estimated